Latest Weather Observations for Low Head

IDT60801

Issued at 2:35 pm EST Wednesday 3 September 2014 (issued every 30 minutes, with the page automatically refreshed every 10 minutes)

About weather observations | Map of weather stations | Latest weather observations for TAS | Other Formats
Station Details ID: 091293 Name: LOW HEAD Lat: -41.05 Lon: 146.79 Height: 3.0 m
Data from the previous 72 hours. | See also: Recent months at Low Head
Date/Time
EST
Temp
°C
App
Temp
°C
Dew
Point
Rel
Hum
%
Delta-T
°C
Wind Press
QNH
hPa
Press
MSL
hPa
Rain
since 9 am
mm
Dir
 
Spd
km/h
Gust
km/h
Spd
kts
Gust
kts
03/02:30pm 12.9 7.9 3.8 54 4.1 WNW 19 22 10 12 1018.8 - 0.0
03/02:00pm 12.8 7.7 3.9 54 4.0 WNW 20 24 11 13 1018.9 - 0.0
03/01:30pm 12.9 7.5 4.3 56 3.9 WNW 22 26 12 14 1019.0 - 0.0
03/01:00pm 13.4 8.4 4.4 54 4.1 WNW 20 22 11 12 1019.5 - 0.0
03/12:30pm 12.5 7.3 3.5 54 4.0 WNW 20 22 11 12 1019.8 - 0.0
03/12:00pm 11.7 6.1 3.5 57 3.6 W 22 24 12 13 1020.4 1020.4 0.0
03/11:30am 11.2 5.6 3.4 58 3.4 W 22 26 12 14 1020.8 - 0.0
03/11:00am 11.0 7.2 3.7 60 3.2 W 13 19 7 10 1021.1 - 0.0
03/10:30am 10.5 6.1 2.5 57 3.4 S 15 17 8 9 1021.5 - 0.0
03/10:00am 9.9 5.5 2.6 60 3.1 S 15 17 8 9 1021.6 - 0.0
03/09:30am 8.5 4.2 3.3 70 2.2 S 15 17 8 9 1021.6 - 0.0
03/09:00am 8.0 4.5 3.5 73 1.9 S 11 17 6 9 1021.5 1021.5 0.2
03/08:30am 7.1 3.6 3.6 78 1.5 S 11 15 6 8 1021.6 - 0.2
03/08:00am 6.4 2.8 2.8 78 1.5 S 11 13 6 7 1021.6 - 0.2
03/07:30am 5.7 2.6 3.5 86 0.9 SSE 9 11 5 6 1021.6 - 0.2
03/07:00am 6.1 2.1 2.9 80 1.3 S 13 19 7 10 1021.2 - 0.2
03/06:30am 6.3 1.3 1.3 70 2.0 S 17 19 9 10 1021.1 - 0.2
03/06:00am 5.5 1.2 0.9 72 1.8 SSW 13 15 7 8 1021.0 1021.0 0.2
03/05:30am 4.8 0.9 1.2 77 1.4 S 11 13 6 7 1020.7 - 0.2
03/05:00am 5.5 1.7 1.7 76 1.5 S 11 13 6 7 1020.6 - 0.2
03/04:30am 5.1 1.8 2.4 83 1.1 S 9 11 5 6 1020.5 - 0.2
03/04:00am 5.3 1.2 2.1 80 1.3 SE 13 17 7 9 1020.5 - 0.2
03/03:30am 6.1 1.6 1.9 74 1.7 S 15 19 8 10 1020.4 - 0.2
03/03:00am 7.2 2.4 2.6 72 1.9 S 17 22 9 12 1020.4 1020.4 0.2
03/02:30am 6.7 1.5 2.3 73 1.8 SSW 19 24 10 13 1020.5 - 0.2
03/02:00am 7.0 0.7 1.8 69 2.1 S 24 30 13 16 1020.6 - 0.2
03/01:30am 7.3 0.7 2.2 70 2.1 S 26 30 14 16 1020.7 - 0.2
03/01:00am 7.0 0.8 2.1 71 2.0 SSE 24 32 13 17 1020.6 - 0.2
03/12:30am 7.0 0.5 2.9 75 1.7 SSE 26 33 14 18 1020.5 - 0.2
03/12:00am 7.3 2.1 2.7 72 1.9 SSE 19 28 10 15 1020.6 1020.6 0.2
 
Date/Time
EST
Temp
°C
App
Temp
°C
Dew
Point
Rel
Hum
%
Delta-T
°C
Wind Press
QNH
hPa
Press
MSL
hPa
Rain
since 9 am
mm
Dir
 
Spd
km/h
Gust
km/h
Spd
kts
Gust
kts
02/11:30pm 7.9 1.9 3.2 72 2.0 SSE 24 32 13 17 1020.5 - 0.2
02/11:00pm 8.1 2.4 2.9 70 2.2 SSE 22 30 12 16 1020.5 - 0.2
02/10:30pm 8.5 2.9 3.6 71 2.1 SSE 22 30 12 16 1020.5 - 0.2
02/10:00pm 8.6 3.5 3.2 69 2.3 SSE 19 28 10 15 1020.3 - 0.2
02/09:30pm 8.5 3.4 3.3 70 2.2 SSE 19 24 10 13 1020.3 - 0.2
02/09:00pm 8.5 3.9 3.9 73 2.0 SSE 17 20 9 11 1020.2 1020.2 0.2
02/08:30pm 9.3 4.5 4.8 73 2.0 S 19 20 10 11 1020.0 - 0.2
02/08:00pm 8.7 4.2 4.4 74 1.9 SSE 17 20 9 11 1019.6 - 0.2
02/07:30pm 9.1 5.9 5.1 76 1.8 SSE 11 13 6 7 1019.2 - 0.2
02/07:00pm 10.4 8.1 5.8 73 2.1 S 7 9 4 5 1018.9 - 0.2
02/06:30pm 11.8 9.3 4.8 62 3.2 W 7 9 4 5 1018.7 - 0.2
02/06:00pm 11.9 8.7 4.9 62 3.2 NW 11 13 6 7 1018.3 1018.3 0.2
02/05:30pm 12.3 8.6 4.6 59 3.5 NW 13 15 7 8 1018.1 - 0.2
02/05:00pm 12.7 8.4 3.5 53 4.1 NW 15 17 8 9 1017.9 - 0.2
02/04:30pm 13.3 8.7 3.7 52 4.3 NW 17 20 9 11 1017.7 - 0.2
02/04:00pm 13.5 9.0 4.3 53 4.2 NW 17 20 9 11 1017.5 - 0.2
02/03:30pm 13.7 8.7 3.5 50 4.6 NW 19 22 10 12 1017.4 - 0.2
02/03:00pm 13.7 8.4 2.0 45 5.1 NW 19 20 10 11 1017.3 1017.3 0.2
02/02:30pm 14.1 9.0 2.9 47 5.0 NW 19 22 10 12 1017.1 - 0.2
02/02:00pm 14.2 9.1 3.0 47 5.0 WNW 19 20 10 11 1016.9 - 0.2
02/01:30pm 14.1 9.6 4.0 50 4.6 WNW 17 26 9 14 1017.0 - 0.2
02/01:00pm 13.3 8.8 2.3 47 4.8 S 15 19 8 10 1017.0 - 0.2
02/12:30pm 12.9 7.5 1.1 44 5.0 S 19 24 10 13 1017.0 - 0.2
02/12:00pm 12.4 6.7 0.6 44 4.9 S 20 28 11 15 1017.2 1017.2 0.2
02/11:30am 12.1 6.3 0.2 44 4.9 S 20 28 11 15 1017.3 - 0.0
02/11:00am 11.9 4.6 -0.1 43 4.9 S 28 33 15 18 1017.3 - 0.0
02/10:30am 11.5 6.0 1.8 51 4.1 SSE 20 28 11 15 1017.3 - 0.0
02/10:00am 10.6 5.1 1.8 54 3.7 SSE 20 32 11 17 1017.1 - 0.0
02/09:30am 10.0 6.0 3.0 62 3.0 S 13 19 7 10 1017.0 - 0.0
02/09:00am 9.0 4.3 3.4 68 2.4 SSE 17 24 9 13 1016.9 1016.9 4.6
02/08:30am 8.8 3.1 2.6 65 2.6 S 22 26 12 14 1016.5 - 4.6
02/08:00am 8.2 3.1 3.3 71 2.1 S 19 26 10 14 1016.1 - 4.6
02/07:30am 7.9 2.8 3.2 72 2.0 S 19 24 10 13 1015.7 - 4.6
02/07:00am 7.9 1.9 3.2 72 2.0 S 24 30 13 16 1015.1 - 4.6
02/06:30am 7.8 2.7 3.3 73 1.9 SSW 19 22 10 12 1014.4 - 4.6
02/06:00am 7.7 2.6 3.2 73 1.9 S 19 24 10 13 1014.2 1014.2 4.6
02/05:30am 7.9 3.7 3.7 75 1.8 SSW 15 19 8 10 1013.9 - 4.6
02/05:00am 8.0 3.7 3.3 72 2.0 SSW 15 19 8 10 1013.3 - 4.6
02/04:30am 8.4 3.7 3.2 70 2.2 S 17 24 9 13 1012.8 - 4.6
02/04:00am 8.1 4.2 3.2 71 2.1 SE 13 20 7 11 1012.5 - 4.6
02/03:30am 8.5 4.7 3.9 73 2.0 SSE 13 32 7 17 1012.1 - 4.6
02/03:00am 8.9 0.9 3.8 70 2.2 SSE 35 44 19 24 1011.2 1011.2 4.6
02/02:30am 9.1 1.7 4.1 71 2.2 SSE 32 43 17 23 1011.0 - 4.6
02/02:00am 9.2 1.1 3.1 65 2.6 SSE 35 46 19 25 1010.6 - 4.6
02/01:30am 9.5 1.0 3.3 65 2.7 S 37 50 20 27 1010.1 - 4.6
02/01:00am 9.5 1.8 3.5 66 2.6 SSE 33 44 18 24 1010.0 - 4.6
02/12:30am 9.6 2.1 3.6 66 2.6 S 32 46 17 25 1009.7 - 4.6
02/12:00am 9.5 1.1 3.5 66 2.6 S 37 46 20 25 1009.5 1009.5 4.6
 
Date/Time
EST
Temp
°C
App
Temp
°C
Dew
Point
Rel
Hum
%
Delta-T
°C
Wind Press
QNH
hPa
Press
MSL
hPa
Rain
since 9 am
mm
Dir
 
Spd
km/h
Gust
km/h
Spd
kts
Gust
kts
01/11:30pm 9.3 1.8 4.3 71 2.2 SSE 33 52 18 28 1009.3 - 4.6
01/11:29pm 9.2 1.7 4.7 73 2.0 SSE 33 52 18 28 1009.3 - 4.6
01/11:00pm 9.6 1.9 5.2 74 2.0 SSE 35 46 19 25 1008.8 - 4.6
01/10:30pm 9.9 2.3 6.0 77 1.8 S 35 46 19 25 1008.3 - 4.6
01/10:00pm 10.0 2.6 6.6 79 1.6 S 35 43 19 23 1008.1 - 4.6
01/09:30pm 9.9 2.5 6.9 81 1.4 S 35 44 19 24 1007.7 - 4.6
01/09:00pm 9.9 3.6 7.2 83 1.3 SSE 30 39 16 21 1007.5 1007.5 4.6
01/08:52pm 9.8 3.5 7.3 84 1.2 SSE 30 48 16 26 1007.4 - 4.6
01/08:30pm 11.4 7.7 10.0 91 0.7 S 20 43 11 23 1007.0 - 4.6
01/08:00pm 11.6 8.4 9.8 89 0.9 S 17 20 9 11 1006.5 - 4.6
01/07:30pm 12.3 8.7 10.0 86 1.2 WSW 19 24 10 13 1005.9 - 4.6
01/07:00pm 12.5 8.9 9.8 83 1.4 WSW 19 20 10 11 1005.4 - 4.6
01/06:30pm 12.7 8.5 9.6 81 1.6 W 22 24 12 13 1005.0 - 4.6
01/06:00pm 12.6 8.7 10.7 88 1.0 WNW 22 26 12 14 1004.7 1004.7 4.6
01/05:30pm 12.6 9.2 10.7 88 1.0 WNW 19 24 10 13 1004.2 - 4.6
01/05:00pm 12.6 8.8 11.1 91 0.8 WNW 22 26 12 14 1004.0 - 4.6
01/04:30pm 12.6 8.1 11.3 92 0.7 WNW 26 32 14 17 1003.7 - 4.6
01/04:00pm 12.6 7.3 11.3 92 0.7 NW 30 35 16 19 1003.7 - 4.6
01/03:30pm 12.6 7.3 11.3 92 0.7 NW 30 35 16 19 1003.7 - 4.6
01/03:00pm 12.5 7.2 11.2 92 0.7 NW 30 35 16 19 1003.3 1003.3 4.6
01/02:30pm 12.5 6.6 11.2 92 0.7 NW 33 39 18 21 1003.4 - 4.6
01/02:00pm 12.4 5.8 11.3 93 0.6 NW 37 46 20 25 1003.4 - 4.4
01/01:30pm 12.4 5.8 11.3 93 0.6 NW 37 43 20 23 1003.6 - 3.8
01/01:00pm 12.5 4.7 11.2 92 0.7 NNW 43 54 23 29 1003.7 - 3.4
01/12:30pm 13.0 6.7 11.1 88 1.0 N 35 43 19 23 1003.8 - 2.6
01/12:00pm 13.0 6.3 10.9 87 1.1 N 37 50 20 27 1004.3 1004.3 2.4
01/11:57am 13.0 6.7 10.9 87 1.1 N 35 50 19 27 1004.4 - 2.4
01/11:30am 13.0 8.5 11.3 89 0.9 N 26 30 14 16 1004.9 - 2.0
01/11:00am 13.0 9.6 11.3 89 0.9 N 20 26 11 14 1005.6 - 1.4
01/10:30am 13.2 9.1 11.5 89 0.9 NNW 24 28 13 15 1005.8 - 1.2
01/10:00am 13.4 9.7 11.5 88 1.0 NNW 22 26 12 14 1006.1 - 0.6
01/09:30am 13.7 9.6 11.3 85 1.3 N 24 30 13 16 1006.1 - 0.2
01/09:00am 14.1 9.0 10.7 80 1.8 N 28 32 15 17 1006.0 1006.0 0.2
01/08:30am 14.0 10.2 11.0 82 1.6 N 22 26 12 14 1006.2 - 0.2
01/08:00am 13.9 11.4 11.1 83 1.5 N 15 15 8 8 1006.3 - 0.2
01/07:30am 14.2 11.2 10.6 79 1.9 N 17 20 9 11 1006.4 - 0.2
01/07:00am 14.3 12.0 10.3 77 2.1 NNW 13 35 7 19 1006.3 - 0.2
01/06:30am 13.8 8.9 11.2 84 1.4 ENE 28 33 15 18 1006.1 - 0.2
01/06:00am 13.5 10.1 11.2 86 1.2 ENE 20 22 11 12 1006.1 1006.1 0.2
01/05:30am 13.2 10.0 11.3 88 1.0 E 19 20 10 11 1007.3 - 0.0
01/05:00am 13.1 11.6 10.4 84 1.4 SE 9 13 5 7 1007.3 - 0.0
01/04:30am 13.4 12.3 10.1 80 1.7 SE 6 9 3 5 1007.5 - 0.0
01/04:00am 13.3 11.3 10.0 80 1.7 ESE 11 20 6 11 1007.2 - 0.0
01/03:30am 12.9 9.8 10.2 84 1.4 E 17 24 9 13 1007.6 - 0.0
01/03:00am 13.3 8.4 10.0 80 1.7 E 26 32 14 17 1007.4 1007.4 0.0
01/02:30am 13.6 9.2 10.3 80 1.7 NE 24 30 13 16 1008.5 - 0.0
01/02:00am 12.8 10.3 9.7 81 1.6 ESE 13 19 7 10 1009.0 - 0.0
01/01:30am 13.0 9.8 9.9 81 1.6 E 17 26 9 14 1009.3 - 0.0
01/01:00am 12.2 10.2 10.1 87 1.1 SSW 11 17 6 9 1010.1 - 0.0
01/12:30am 11.8 9.3 9.8 87 1.0 SSE 13 19 7 10 1010.4 - 0.0
01/12:00am 12.2 10.2 10.3 88 1.0 E 11 19 6 10 1010.5 1010.5 0.0
 
Date/Time
EST
Temp
°C
App
Temp
°C
Dew
Point
Rel
Hum
%
Delta-T
°C
Wind Press
QNH
hPa
Press
MSL
hPa
Rain
since 9 am
mm
Dir
 
Spd
km/h
Gust
km/h
Spd
kts
Gust
kts
31/11:30pm 12.7 9.1 10.6 87 1.1 ENE 20 26 11 14 1010.9 - 0.0
31/11:00pm 12.8 8.4 10.5 86 1.2 ENE 24 28 13 15 1011.1 - 0.0
31/10:30pm 12.7 8.4 10.6 87 1.1 ENE 24 30 13 16 1011.4 - 0.0
31/10:00pm 11.9 9.2 10.3 90 0.8 E 15 19 8 10 1011.8 - 0.0
31/09:30pm 11.9 9.2 10.5 91 0.7 E 15 19 8 10 1012.2 - 0.0
31/09:00pm 11.9 9.7 10.7 92 0.6 E 13 17 7 9 1012.6 1012.6 0.0
31/08:30pm 11.9 10.0 10.5 91 0.7 E 11 15 6 8 1012.9 - 0.0
31/08:00pm 12.2 9.7 10.9 92 0.7 E 15 17 8 9 1012.9 - 0.0
31/07:30pm 12.2 10.8 10.9 92 0.7 E 9 13 5 7 1013.2 - 0.0
31/07:00pm 12.7 9.9 11.4 92 0.7 E 17 19 9 10 1013.2 - 0.0
31/06:30pm 13.0 9.9 11.5 91 0.8 E 19 22 10 12 1013.2 - 0.0
31/06:00pm 13.2 9.6 11.7 91 0.8 ENE 22 24 12 13 1013.3 1013.3 0.0
31/05:30pm 13.3 9.6 11.6 89 0.9 ENE 22 26 12 14 1013.4 - 0.0
31/05:00pm 13.3 9.6 11.6 89 0.9 ENE 22 26 12 14 1013.5 - 0.0
31/04:30pm 13.5 9.0 11.4 87 1.1 ENE 26 30 14 16 1013.4 - 0.0
31/04:00pm 13.5 10.1 11.4 87 1.1 ENE 20 24 11 13 1014.0 - 0.0
31/03:30pm 13.9 10.5 11.3 84 1.4 ENE 20 26 11 14 1014.3 - 0.0
31/03:00pm 13.8 10.3 11.0 83 1.5 ENE 20 24 11 13 1014.7 1014.7 0.0

Other Formats:

Comma delimited format used in spreadsheet applications
http://www.bom.gov.au/fwo/IDT60801/IDT60801.95964.axf

JavaScript Object Notation format (JSON) in row-major order
http://www.bom.gov.au/fwo/IDT60801/IDT60801.95964.json